Time;durP1;ratioP1;P1;durP2;ratioP2;P2;SDS_P1;SDS_P2;PMS_P1;PMS_P2;Temp;Humidity;BMP_temperature;BMP_pressure;BME280_temperature;BME280_humidity;BME280_pressure;Samples;Min_cycle;Max_cycle;Signal;HPM_P1;HPM_P2
2022/03/23 00:00:46;;;;;;;59.60;46.40;;;9.60;99.90;;;;;;5056925;28;20052;-79
2022/03/23 00:03:15;;;;;;;56.47;43.78;;;9.80;99.90;;;;;;5048461;28;20044;-80
2022/03/23 00:05:42;;;;;;;54.38;43.92;;;11.30;99.90;;;;;;5043579;28;20492;-80
2022/03/23 00:08:11;;;;;;;61.17;45.70;;;9.80;99.90;;;;;;5056595;28;20071;-79
2022/03/23 00:10:37;;;;;;;62.28;47.70;;;9.70;99.90;;;;;;5041120;28;20048;-79
2022/03/23 00:13:05;;;;;;;59.80;46.70;;;9.70;99.90;;;;;;5065749;28;20048;-80
2022/03/23 00:15:32;;;;;;;62.42;47.53;;;9.60;99.90;;;;;;5057667;28;20033;-80
2022/03/23 00:17:57;;;;;;;59.83;44.80;;;9.60;99.90;;;;;;5091794;28;20177;-81
2022/03/23 00:20:27;;;;;;;59.35;45.78;;;9.50;99.90;;;;;;5058659;28;22013;-82
2022/03/23 00:22:52;;;;;;;62.72;46.50;;;9.50;99.90;;;;;;5055112;28;20037;-80
2022/03/23 00:25:18;;;;;;;62.85;48.30;;;9.40;99.90;;;;;;5062457;28;20435;-81
2022/03/23 00:27:44;;;;;;;63.20;46.50;;;9.30;99.90;;;;;;5064869;28;20041;-80
2022/03/23 00:30:10;;;;;;;57.22;45.42;;;9.30;99.90;;;;;;5041657;28;20179;-80
2022/03/23 00:32:36;;;;;;;58.20;44.60;;;9.30;99.90;;;;;;5065738;28;20041;-81
2022/03/23 00:35:03;;;;;;;59.28;45.90;;;9.20;99.90;;;;;;5048274;28;20490;-80
2022/03/23 00:37:29;;;;;;;65.65;45.65;;;9.20;99.90;;;;;;5066396;28;20052;-81
2022/03/23 00:39:55;;;;;;;57.42;46.20;;;9.10;99.90;;;;;;5065268;28;20052;-81
2022/03/23 00:42:21;;;;;;;60.15;44.35;;;9.20;99.90;;;;;;5063084;28;20055;-81
2022/03/23 00:44:47;;;;;;;62.22;45.50;;;9.10;99.90;;;;;;5043939;28;20040;-80
2022/03/23 00:47:12;;;;;;;57.15;43.05;;;10.50;99.90;;;;;;5047154;28;20047;-80
2022/03/23 00:49:38;;;;;;;54.42;44.40;;;9.10;99.90;;;;;;5067428;28;20511;-80
2022/03/23 00:52:08;;;;;;;61.30;44.05;;;9.10;99.90;;;;;;5047273;28;20095;-81
2022/03/23 00:54:34;;;;;;;60.00;44.97;;;9.00;99.90;;;;;;5067298;28;20036;-81
2022/03/23 00:57:04;;;;;;;56.15;42.83;;;9.10;99.90;;;;;;5057989;28;20048;-80
2022/03/23 00:59:30;;;;;;;60.42;44.65;;;8.90;99.90;;;;;;5064585;28;20075;-81
2022/03/23 01:01:56;;;;;;;60.22;45.10;;;9.00;99.90;;;;;;5059135;28;20387;-81
2022/03/23 01:04:22;;;;;;;60.17;44.40;;;8.90;99.90;;;;;;5053487;28;20543;-81
2022/03/23 01:06:48;;;;;;;56.60;43.15;;;8.90;99.90;;;;;;5059611;28;20056;-81
2022/03/23 01:09:13;;;;;;;59.80;43.30;;;8.80;99.90;;;;;;5041206;28;20033;-81
2022/03/23 01:11:40;;;;;;;54.13;42.80;;;8.80;99.90;;;;;;5066690;28;20067;-81
2022/03/23 01:14:07;;;;;;;59.92;44.42;;;8.70;99.90;;;;;;5053088;28;20056;-81
2022/03/23 01:16:33;;;;;;;60.05;41.83;;;8.70;99.90;;;;;;5060394;28;20043;-81
2022/03/23 01:19:00;;;;;;;59.42;42.83;;;8.70;99.90;;;;;;5048959;28;20037;-81
2022/03/23 01:21:26;;;;;;;57.75;43.05;;;8.70;99.90;;;;;;5058544;28;20037;-81
2022/03/23 01:23:54;;;;;;;52.58;42.92;;;8.70;99.90;;;;;;5066195;28;20496;-82
2022/03/23 01:26:20;;;;;;;51.88;41.00;;;8.70;99.90;;;;;;5051996;28;20253;-81
2022/03/23 01:28:45;;;;;;;56.33;41.72;;;10.10;99.90;;;;;;5068516;28;20107;-81
2022/03/23 01:31:11;;;;;;;52.90;40.42;;;8.80;99.90;;;;;;5057593;28;20572;-81
2022/03/23 01:33:37;;;;;;;53.22;40.22;;;8.80;99.90;;;;;;5067568;28;20094;-81
2022/03/23 01:36:03;;;;;;;47.67;38.08;;;8.80;99.90;;;;;;5067380;28;20495;-81
2022/03/23 01:38:29;;;;;;;47.75;39.10;;;8.80;99.90;;;;;;5046483;28;20041;-81
2022/03/23 01:40:55;;;;;;;55.28;38.53;;;8.80;99.90;;;;;;5064871;28;20032;-81
2022/03/23 01:43:20;;;;;;;50.10;38.92;;;8.80;99.90;;;;;;5065783;28;20048;-81
2022/03/23 01:45:46;;;;;;;49.28;38.38;;;8.20;99.90;;;;;;5059780;28;20076;-80
2022/03/23 01:48:12;;;;;;;50.42;38.42;;;8.60;99.90;;;;;;5045971;28;20477;-81
2022/03/23 01:50:38;;;;;;;53.03;38.63;;;8.60;99.90;;;;;;5069108;28;20477;-80
2022/03/23 01:53:03;;;;;;;51.20;37.33;;;8.50;99.90;;;;;;5056809;28;20048;-81
2022/03/23 01:55:29;;;;;;;51.47;38.78;;;8.50;99.90;;;;;;5069409;28;20712;-81
2022/03/23 01:57:55;;;;;;;47.28;37.42;;;8.40;99.90;;;;;;5070980;28;20063;-82
2022/03/23 02:00:21;;;;;;;52.72;38.25;;;8.30;99.90;;;;;;5066012;28;20093;-81
2022/03/23 02:02:47;;;;;;;46.60;36.17;;;8.30;99.90;;;;;;5079192;28;20049;-81
2022/03/23 02:05:14;;;;;;;49.13;36.67;;;8.20;99.90;;;;;;5060713;28;20475;-82
2022/03/23 02:07:40;;;;;;;47.28;35.28;;;8.20;99.90;;;;;;5063618;28;20035;-81
2022/03/23 02:10:07;;;;;;;50.22;37.85;;;8.20;99.90;;;;;;5064926;28;20036;-81
2022/03/23 02:12:34;;;;;;;47.60;36.20;;;8.20;99.90;;;;;;5058207;28;20033;-81
2022/03/23 02:15:09;;;;;;;44.72;34.55;;;8.10;99.90;;;;;;5062711;28;20041;-80
2022/03/23 02:17:34;;;;;;;46.08;34.90;;;8.10;99.90;;;;;;5068141;28;20041;-81
2022/03/23 02:20:00;;;;;;;46.60;34.80;;;8.80;99.90;;;;;;5065575;28;20052;-81
2022/03/23 02:22:26;;;;;;;42.97;33.90;;;8.00;99.90;;;;;;5061831;28;20109;-81
2022/03/23 02:24:52;;;;;;;44.97;35.70;;;8.00;99.90;;;;;;5066299;28;20485;-81
2022/03/23 02:27:18;;;;;;;42.85;35.13;;;7.70;99.90;;;;;;5060870;28;20705;-81
2022/03/23 02:29:44;;;;;;;43.40;34.63;;;7.90;99.90;;;;;;5045378;28;20053;-80
2022/03/23 02:32:10;;;;;;;43.70;33.38;;;8.00;99.90;;;;;;5065207;28;20426;-81
2022/03/23 02:34:36;;;;;;;40.78;33.20;;;7.90;99.90;;;;;;5066804;28;20059;-80
2022/03/23 02:37:02;;;;;;;44.83;34.17;;;7.80;99.90;;;;;;5061558;28;20037;-81
2022/03/23 02:39:27;;;;;;;42.58;33.85;;;7.80;99.90;;;;;;5062166;28;20028;-82
2022/03/23 02:41:54;;;;;;;44.33;33.75;;;7.80;99.90;;;;;;5064211;28;20072;-81
2022/03/23 02:44:20;;;;;;;39.67;31.88;;;7.70;99.90;;;;;;5060649;28;20044;-80
2022/03/23 02:46:46;;;;;;;46.88;30.95;;;7.70;99.90;;;;;;5055663;28;20098;-80
2022/03/23 02:49:15;;;;;;;38.75;30.80;;;7.60;99.90;;;;;;5063156;28;20040;-79
2022/03/23 02:51:41;;;;;;;37.65;29.77;;;7.70;99.90;;;;;;5057347;28;20067;-80
2022/03/23 03:02:57;;;;;;;42.15;31.42;;;7.70;99.90;;;;;;5055137;28;20162;-81
2022/03/23 03:05:23;;;;;;;40.75;30.10;;;7.70;99.90;;;;;;5064807;28;20135;-79
2022/03/23 03:10:33;;;;;;;44.85;31.65;;;7.60;99.90;;;;;;5059283;28;20171;-79
2022/03/23 03:12:59;;;;;;;43.42;31.05;;;7.60;99.90;;;;;;5064780;28;20127;-80
2022/03/23 03:15:25;;;;;;;45.33;33.53;;;7.50;99.90;;;;;;5062564;28;20047;-80
2022/03/23 03:17:51;;;;;;;41.10;30.88;;;7.40;99.90;;;;;;5062214;28;20412;-81
2022/03/23 03:20:17;;;;;;;42.00;31.33;;;7.30;99.90;;;;;;5063569;28;20099;-80
2022/03/23 03:22:45;;;;;;;39.30;30.70;;;8.10;99.90;;;;;;5060622;28;20519;-80
2022/03/23 03:25:16;;;;;;;39.35;30.25;;;9.10;99.90;;;;;;5058714;28;20049;-81
2022/03/23 03:27:43;;;;;;;37.15;29.13;;;7.30;99.90;;;;;;5072379;28;20048;-81
2022/03/23 03:30:12;;;;;;;42.25;31.30;;;7.20;99.90;;;;;;5060882;28;20036;-80
2022/03/23 03:32:38;;;;;;;39.63;31.40;;;7.20;99.90;;;;;;5091236;28;20555;-80
2022/03/23 03:35:05;;;;;;;41.03;31.38;;;7.20;99.90;;;;;;5065778;28;20049;-80
2022/03/23 03:37:31;;;;;;;41.17;31.02;;;7.20;99.90;;;;;;5049187;28;20090;-80
2022/03/23 03:39:57;;;;;;;40.00;30.25;;;7.10;99.90;;;;;;5062402;28;20150;-80
2022/03/23 03:42:22;;;;;;;40.13;29.77;;;7.10;99.90;;;;;;5065238;28;20482;-80
2022/03/23 03:44:50;;;;;;;37.20;29.45;;;7.10;99.90;;;;;;5044713;28;20052;-81
2022/03/23 03:47:17;;;;;;;34.92;29.08;;;7.40;99.90;;;;;;5054832;28;20580;-81
2022/03/23 03:49:42;;;;;;;35.47;28.42;;;7.00;99.90;;;;;;5061797;28;20077;-80
2022/03/23 03:52:08;;;;;;;34.30;27.77;;;9.00;99.90;;;;;;5071900;28;20040;-80
2022/03/23 03:54:33;;;;;;;39.03;30.25;;;7.00;99.90;;;;;;5067311;28;20072;-80
2022/03/23 03:56:59;;;;;;;40.63;29.83;;;6.90;99.90;;;;;;5066980;28;20036;-80
2022/03/23 03:59:25;;;;;;;38.55;28.17;;;6.90;99.90;;;;;;5063445;28;20048;-81
2022/03/23 04:01:50;;;;;;;38.92;29.08;;;7.00;99.90;;;;;;5059244;28;20066;-80
2022/03/23 04:04:16;;;;;;;37.63;30.63;;;8.90;99.90;;;;;;5065899;28;20048;-80
2022/03/23 04:06:42;;;;;;;37.75;29.92;;;7.00;99.90;;;;;;5042331;28;20043;-80
2022/03/23 04:09:08;;;;;;;44.70;31.30;;;7.00;99.90;;;;;;5061413;28;20037;-79
2022/03/23 04:11:34;;;;;;;39.60;30.50;;;7.00;99.90;;;;;;5058054;28;20029;-79
2022/03/23 04:14:00;;;;;;;40.17;31.67;;;6.90;99.90;;;;;;5042993;28;20535;-80
2022/03/23 04:16:26;;;;;;;42.28;32.35;;;8.20;99.90;;;;;;5066721;28;20039;-80
2022/03/23 04:18:51;;;;;;;38.05;30.08;;;7.90;99.90;;;;;;5056166;28;20204;-80
2022/03/23 04:21:17;;;;;;;39.90;30.20;;;6.80;99.90;;;;;;5041208;28;20045;-79
2022/03/23 04:23:42;;;;;;;42.00;30.38;;;6.80;99.90;;;;;;5062702;28;20454;-80
2022/03/23 04:26:08;;;;;;;41.03;29.00;;;6.80;99.90;;;;;;5063718;28;20036;-79
2022/03/23 04:28:34;;;;;;;40.95;31.02;;;6.70;99.90;;;;;;5048620;28;20534;-80
2022/03/23 04:31:01;;;;;;;41.50;29.73;;;6.70;99.90;;;;;;5037831;28;20084;-80
2022/03/23 04:33:27;;;;;;;40.53;30.27;;;6.70;99.90;;;;;;5065486;28;20044;-82
2022/03/23 04:35:53;;;;;;;42.50;30.00;;;6.60;99.90;;;;;;5059631;28;20036;-80
2022/03/23 04:38:19;;;;;;;44.08;29.38;;;6.60;99.90;;;;;;5048696;28;20127;-80
2022/03/23 04:40:45;;;;;;;41.53;29.80;;;6.60;99.90;;;;;;5064712;28;20048;-80
2022/03/23 04:43:11;;;;;;;42.25;31.38;;;6.60;99.90;;;;;;5063760;28;20106;-81
2022/03/23 04:45:36;;;;;;;37.95;29.88;;;6.60;99.90;;;;;;5064310;28;20059;-80
2022/03/23 04:48:02;;;;;;;35.38;28.15;;;6.60;99.90;;;;;;5051660;28;20037;-80
2022/03/23 04:50:28;;;;;;;38.42;30.23;;;6.60;99.90;;;;;;5059830;28;20142;-80
2022/03/23 04:52:55;;;;;;;40.45;30.00;;;6.50;99.90;;;;;;5062058;28;20094;-80
2022/03/23 04:55:21;;;;;;;42.70;30.45;;;6.50;99.90;;;;;;5068089;28;20076;-81
2022/03/23 04:57:47;;;;;;;40.20;29.83;;;7.60;99.90;;;;;;5069160;28;20076;-79
2022/03/23 05:00:15;;;;;;;40.08;31.48;;;6.50;99.90;;;;;;5062906;28;20111;-80
2022/03/23 05:02:42;;;;;;;38.80;30.52;;;6.40;99.90;;;;;;5054206;28;20519;-80
2022/03/23 05:05:10;;;;;;;39.33;30.33;;;6.40;99.90;;;;;;5067347;28;20508;-80
2022/03/23 05:07:35;;;;;;;39.53;29.63;;;6.30;99.90;;;;;;5049913;28;20041;-81
2022/03/23 05:10:02;;;;;;;38.15;29.15;;;6.30;99.90;;;;;;5068779;28;20056;-79
2022/03/23 05:12:28;;;;;;;37.05;29.52;;;6.30;99.90;;;;;;5067480;28;20028;-80
2022/03/23 05:14:54;;;;;;;37.65;29.33;;;6.30;99.90;;;;;;5049732;28;20093;-80
2022/03/23 05:17:20;;;;;;;39.88;30.02;;;6.30;99.90;;;;;;5059513;28;20079;-80
2022/03/23 05:19:45;;;;;;;34.78;27.80;;;6.30;99.90;;;;;;5063525;28;20090;-80
2022/03/23 05:22:12;;;;;;;32.28;26.00;;;6.30;99.90;;;;;;5064590;28;20091;-81
2022/03/23 05:24:39;;;;;;;36.08;27.55;;;6.30;99.90;;;;;;5058705;28;20044;-80
2022/03/23 05:27:06;;;;;;;33.78;27.00;;;8.00;99.90;;;;;;5067663;28;20033;-81
2022/03/23 05:29:32;;;;;;;38.75;28.50;;;6.30;99.90;;;;;;5058256;28;20045;-81
2022/03/23 05:31:59;;;;;;;35.42;28.52;;;6.20;99.90;;;;;;5061416;28;20083;-80
2022/03/23 05:34:24;;;;;;;38.42;28.30;;;6.20;99.90;;;;;;5068720;28;20469;-80
2022/03/23 05:36:50;;;;;;;35.28;26.67;;;6.00;99.90;;;;;;5068020;28;20063;-81
2022/03/23 05:39:16;;;;;;;36.05;28.35;;;6.40;99.90;;;;;;5063314;28;20357;-80
2022/03/23 05:41:42;;;;;;;32.75;26.33;;;6.10;99.90;;;;;;5064855;28;20051;-80
2022/03/23 05:44:08;;;;;;;34.97;25.95;;;5.90;99.90;;;;;;5068588;28;20097;-80
2022/03/23 05:46:34;;;;;;;36.33;27.67;;;6.10;99.90;;;;;;5070490;28;20040;-80
2022/03/23 05:48:59;;;;;;;36.58;28.38;;;6.10;99.90;;;;;;5063427;28;20045;-80
2022/03/23 05:51:25;;;;;;;36.08;27.17;;;6.10;99.90;;;;;;5059624;28;20052;-80
2022/03/23 05:53:51;;;;;;;36.67;28.27;;;6.10;99.90;;;;;;5067982;28;20044;-80
2022/03/23 05:56:17;;;;;;;43.05;28.27;;;6.00;99.90;;;;;;5069436;28;20048;-80
2022/03/23 05:58:42;;;;;;;32.33;26.20;;;5.80;99.90;;;;;;5064700;28;20496;-80
2022/03/23 06:01:08;;;;;;;37.10;27.17;;;6.10;99.90;;;;;;5075940;28;20044;-80
2022/03/23 06:03:35;;;;;;;36.20;28.63;;;4.80;99.90;;;;;;5069211;28;20487;-81
2022/03/23 06:06:01;;;;;;;35.08;27.83;;;6.00;99.90;;;;;;5083209;28;20052;-79
2022/03/23 06:08:26;;;;;;;38.03;27.42;;;6.00;99.90;;;;;;5070734;28;20361;-79
2022/03/23 06:10:52;;;;;;;43.00;31.67;;;5.90;99.90;;;;;;5073547;28;20441;-79
2022/03/23 06:13:18;;;;;;;40.00;29.98;;;6.10;99.90;;;;;;5070787;28;20036;-83
2022/03/23 06:15:43;;;;;;;44.78;33.53;;;6.10;99.90;;;;;;5069004;28;20040;-82
2022/03/23 06:18:09;;;;;;;40.30;32.30;;;6.00;99.90;;;;;;5070654;28;20032;-78
2022/03/23 06:20:35;;;;;;;45.72;32.35;;;6.10;99.90;;;;;;5068333;28;20047;-79
2022/03/23 06:23:00;;;;;;;41.33;30.67;;;6.10;99.90;;;;;;5071587;28;20056;-78
2022/03/23 06:25:26;;;;;;;40.97;30.27;;;5.80;99.90;;;;;;5069214;28;20763;-78
2022/03/23 06:27:52;;;;;;;37.75;29.85;;;5.90;99.90;;;;;;5068636;28;20047;-79
2022/03/23 06:30:18;;;;;;;39.00;31.20;;;6.10;99.90;;;;;;5070457;28;20043;-80
2022/03/23 06:32:43;;;;;;;40.47;29.13;;;6.10;99.90;;;;;;5063330;28;20044;-79
2022/03/23 06:35:09;;;;;;;37.92;29.65;;;6.10;99.90;;;;;;5070997;28;20033;-79
2022/03/23 06:37:35;;;;;;;41.80;31.55;;;6.20;99.90;;;;;;5052908;28;20120;-80
2022/03/23 06:40:03;;;;;;;36.47;31.13;;;6.20;99.90;;;;;;5076616;28;20123;-81
2022/03/23 06:42:29;;;;;;;38.90;30.75;;;8.30;99.90;;;;;;5069395;28;20079;-79
2022/03/23 06:44:54;;;;;;;39.50;30.88;;;6.30;99.90;;;;;;5067816;28;20080;-78
2022/03/23 06:47:20;;;;;;;39.88;29.55;;;6.30;99.90;;;;;;5068312;28;20081;-79
2022/03/23 06:49:45;;;;;;;39.88;30.55;;;6.40;99.90;;;;;;4717176;28;9999882;-78
2022/03/23 06:52:11;;;;;;;39.13;30.98;;;6.40;99.90;;;;;;5066296;28;20037;-79
2022/03/23 06:54:37;;;;;;;40.95;31.13;;;6.40;99.90;;;;;;5064791;28;20040;-78
2022/03/23 06:57:03;;;;;;;74.88;53.03;;;5.90;99.90;;;;;;5065294;28;20129;-78
2022/03/23 06:59:28;;;;;;;61.58;44.92;;;6.50;99.90;;;;;;5066657;28;20072;-79
2022/03/23 07:01:54;;;;;;;55.20;41.35;;;6.50;99.90;;;;;;5049256;28;20051;-79
2022/03/23 07:04:20;;;;;;;50.03;38.72;;;6.60;99.90;;;;;;5067365;28;20072;-79
2022/03/23 07:06:45;;;;;;;49.40;36.15;;;6.60;99.90;;;;;;5066751;28;20047;-78
2022/03/23 07:11:55;;;;;;;66.05;44.08;;;6.70;99.90;;;;;;5065368;28;20053;-79
2022/03/23 07:14:21;;;;;;;54.40;39.92;;;6.70;99.90;;;;;;5067209;28;20063;-79
2022/03/23 07:16:46;;;;;;;65.13;45.42;;;6.70;99.90;;;;;;5066721;28;20271;-79
2022/03/23 07:19:13;;;;;;;65.28;47.83;;;6.80;99.90;;;;;;5066204;28;20377;-79
2022/03/23 07:21:39;;;;;;;71.78;49.50;;;6.90;99.90;;;;;;5066900;28;20064;-79
2022/03/23 07:24:05;;;;;;;68.25;50.30;;;6.90;99.90;;;;;;5067297;28;20127;-79
2022/03/23 07:26:31;;;;;;;78.30;53.08;;;7.00;99.90;;;;;;5051637;28;20488;-78
2022/03/23 07:28:56;;;;;;;78.35;51.42;;;7.10;99.90;;;;;;5048962;28;20082;-79
2022/03/23 07:31:22;;;;;;;73.40;51.70;;;7.20;99.90;;;;;;5054818;28;20086;-79
2022/03/23 07:33:50;;;;;;;71.45;50.35;;;7.30;99.90;;;;;;5066961;28;20158;-78
2022/03/23 07:36:15;;;;;;;74.45;49.17;;;7.40;99.90;;;;;;5064878;28;20052;-78
2022/03/23 07:38:41;;;;;;;69.03;49.33;;;7.50;99.90;;;;;;5064787;28;20043;-79
2022/03/23 07:41:06;;;;;;;68.63;49.60;;;7.60;99.90;;;;;;5069459;28;20449;-79
2022/03/23 07:43:32;;;;;;;68.20;48.05;;;7.70;99.90;;;;;;5065760;28;20344;-78
2022/03/23 07:45:58;;;;;;;63.38;45.35;;;7.70;99.90;;;;;;5064779;28;20146;-79
2022/03/23 07:48:24;;;;;;;60.53;44.10;;;9.30;99.90;;;;;;5067277;28;20115;-80
2022/03/23 07:50:51;;;;;;;63.35;45.55;;;7.80;99.90;;;;;;5067359;28;20072;-79
2022/03/23 07:53:17;;;;;;;63.08;43.42;;;7.90;99.90;;;;;;5065889;28;20450;-79
2022/03/23 07:55:42;;;;;;;62.28;42.30;;;8.00;99.90;;;;;;5072404;28;20129;-80
2022/03/23 07:58:08;;;;;;;54.22;40.75;;;8.10;99.90;;;;;;5068291;28;20044;-79
2022/03/23 08:00:34;;;;;;;54.28;38.17;;;8.20;99.90;;;;;;5067790;28;20161;-79
2022/03/23 08:02:59;;;;;;;53.83;37.03;;;8.30;99.90;;;;;;5066772;28;20045;-79
2022/03/23 08:05:25;;;;;;;54.08;36.33;;;8.50;99.90;;;;;;5074466;28;20496;-80
2022/03/23 08:07:51;;;;;;;47.88;35.35;;;8.60;99.90;;;;;;5065908;28;20519;-80
2022/03/23 08:10:17;;;;;;;50.60;34.65;;;8.70;99.90;;;;;;5066545;28;20036;-80
2022/03/23 08:12:42;;;;;;;44.53;33.38;;;8.80;99.90;;;;;;5067857;28;20105;-79
2022/03/23 08:15:09;;;;;;;42.42;31.15;;;9.70;99.90;;;;;;5066099;28;20056;-80
2022/03/23 08:17:38;;;;;;;44.88;32.30;;;9.00;99.90;;;;;;5049765;28;20037;-79
2022/03/23 08:22:53;;;;;;;40.05;29.83;;;9.30;99.90;;;;;;5067942;28;20048;-80
2022/03/23 08:25:21;;;;;;;36.15;28.30;;;9.50;99.90;;;;;;5066868;28;20044;-80
2022/03/23 08:27:47;;;;;;;41.97;28.52;;;9.60;99.90;;;;;;5050613;28;20044;-81
2022/03/23 08:30:14;;;;;;;37.70;27.80;;;9.80;99.90;;;;;;5070462;28;20048;-80
2022/03/23 08:32:39;;;;;;;38.33;26.83;;;9.90;99.90;;;;;;5075279;28;20401;-79
2022/03/23 08:35:06;;;;;;;35.30;27.92;;;10.00;99.90;;;;;;5066707;28;20066;-80
2022/03/23 08:37:32;;;;;;;37.17;26.60;;;10.10;99.90;;;;;;5070158;28;20068;-79
2022/03/23 08:39:59;;;;;;;34.20;26.38;;;10.30;99.90;;;;;;5068958;28;20080;-80
2022/03/23 08:42:24;;;;;;;37.88;27.75;;;10.20;99.90;;;;;;5069678;28;20064;-80
2022/03/23 08:44:50;;;;;;;38.60;27.42;;;10.40;99.90;;;;;;5069673;28;20103;-80
2022/03/23 08:47:16;;;;;;;38.85;27.73;;;10.40;99.90;;;;;;5070782;28;20363;-80
2022/03/23 08:49:42;;;;;;;42.47;28.77;;;10.60;99.90;;;;;;5069580;28;20037;-80
2022/03/23 08:52:07;;;;;;;40.95;29.05;;;10.70;99.90;;;;;;5069493;28;20077;-80
2022/03/23 08:54:33;;;;;;;36.58;27.08;;;10.80;99.90;;;;;;5070138;28;20041;-80
2022/03/23 08:56:58;;;;;;;38.47;28.08;;;11.00;99.90;;;;;;5067606;28;20048;-79
2022/03/23 08:59:24;;;;;;;38.83;29.52;;;11.20;99.90;;;;;;5070142;28;20105;-81
2022/03/23 09:01:50;;;;;;;40.50;29.20;;;11.30;99.90;;;;;;5070010;28;20048;-79
2022/03/23 09:04:18;;;;;;;34.70;27.65;;;11.40;99.90;;;;;;5050023;28;20064;-80
2022/03/23 09:06:44;;;;;;;41.17;29.25;;;11.50;99.90;;;;;;5068424;28;20044;-79
2022/03/23 09:09:10;;;;;;;38.05;29.40;;;11.50;99.90;;;;;;5075972;28;20044;-79
2022/03/23 09:11:35;;;;;;;38.92;29.83;;;12.40;99.90;;;;;;5067849;28;20048;-79
2022/03/23 09:14:01;;;;;;;40.67;28.67;;;11.70;99.90;;;;;;5071526;28;20064;-80
2022/03/23 09:16:27;;;;;;;40.95;29.75;;;11.70;99.90;;;;;;5068037;28;20215;-79
2022/03/23 09:18:53;;;;;;;41.22;29.90;;;11.80;99.90;;;;;;5052025;28;20508;-80
2022/03/23 09:21:20;;;;;;;38.85;28.55;;;11.80;99.90;;;;;;5068150;28;20392;-80
2022/03/23 09:23:45;;;;;;;37.55;28.38;;;11.80;99.90;;;;;;5068990;28;20048;-80
2022/03/23 09:26:11;;;;;;;37.40;27.80;;;11.80;99.90;;;;;;5068047;28;20049;-79
2022/03/23 09:28:38;;;;;;;34.28;25.58;;;11.80;99.90;;;;;;5073961;28;20051;-79
2022/03/23 09:31:04;;;;;;;36.47;24.83;;;11.90;99.90;;;;;;5066867;28;20529;-81
2022/03/23 09:33:30;;;;;;;32.00;25.58;;;12.20;99.90;;;;;;5067773;28;20044;-80
2022/03/23 09:35:56;;;;;;;35.30;24.83;;;12.30;99.90;;;;;;5068130;28;20460;-80
2022/03/23 09:38:22;;;;;;;34.10;23.90;;;12.50;99.10;;;;;;5067638;28;20075;-80
2022/03/23 09:40:51;;;;;;;32.17;25.35;;;12.50;98.20;;;;;;5069293;28;20052;-80
2022/03/23 09:43:21;;;;;;;32.92;24.98;;;12.60;97.80;;;;;;5072927;28;20091;-80
2022/03/23 09:45:47;;;;;;;30.67;23.27;;;12.60;97.80;;;;;;5071750;28;20048;-80
2022/03/23 09:48:16;;;;;;;34.45;24.00;;;12.60;97.50;;;;;;5072252;28;20044;-81
2022/03/23 09:50:45;;;;;;;32.22;24.65;;;13.60;97.10;;;;;;5076044;28;20064;-80
2022/03/23 09:53:11;;;;;;;32.08;24.30;;;12.60;97.10;;;;;;5062952;28;20381;-81
2022/03/23 09:55:37;;;;;;;31.40;23.02;;;12.80;96.60;;;;;;5067880;28;20036;-81
2022/03/23 09:58:04;;;;;;;31.80;22.70;;;13.00;95.70;;;;;;5072648;28;20051;-81
2022/03/23 10:00:42;;;;;;;32.70;23.05;;;13.20;95.30;;;;;;5045077;28;20592;-81
2022/03/23 10:03:09;;;;;;;27.55;22.40;;;13.10;95.20;;;;;;5067457;28;20044;-82
2022/03/23 10:06:09;;;;;;;31.42;23.15;;;13.30;95.10;;;;;;5052277;28;20037;-82
2022/03/23 10:09:12;;;;;;;28.08;21.17;;;13.40;94.30;;;;;;5054619;28;20086;-81
2022/03/23 10:12:15;;;;;;;32.33;22.33;;;13.50;93.00;;;;;;5063284;28;20040;-81
2022/03/23 10:15:24;;;;;;;25.77;21.73;;;13.60;92.50;;;;;;5070962;28;20048;-82
2022/03/23 10:18:16;;;;;;;22.52;19.45;;;13.80;92.10;;;;;;5064917;28;20496;-81
2022/03/23 10:20:42;;;;;;;20.05;17.95;;;14.10;89.20;;;;;;5058961;28;20094;-79
2022/03/23 10:23:07;;;;;;;28.77;18.55;;;14.30;90.00;;;;;;5069513;28;20044;-80
2022/03/23 10:25:33;;;;;;;25.05;18.70;;;14.40;87.60;;;;;;5074772;28;20139;-81
2022/03/23 10:27:58;;;;;;;23.83;17.33;;;14.40;86.90;;;;;;5045670;28;20484;-81
2022/03/23 10:30:34;;;;;;;25.85;16.98;;;14.60;85.50;;;;;;5070460;28;20115;-81
2022/03/23 10:33:00;;;;;;;23.67;17.65;;;14.70;81.00;;;;;;5072617;28;20052;-81
2022/03/23 10:35:37;;;;;;;25.67;17.75;;;14.60;83.30;;;;;;5071870;28;20129;-82
2022/03/23 10:38:21;;;;;;;23.08;17.00;;;14.70;81.50;;;;;;5070740;28;20446;-80
2022/03/23 10:40:50;;;;;;;24.30;17.27;;;14.90;78.30;;;;;;5063357;28;20052;-81
2022/03/23 10:43:23;;;;;;;23.63;16.83;;;15.00;79.20;;;;;;5075177;28;20052;-80
2022/03/23 10:45:48;;;;;;;19.15;14.85;;;15.00;80.60;;;;;;5070901;28;20041;-81
2022/03/23 10:48:16;;;;;;;21.60;14.95;;;15.00;79.70;;;;;;5071073;28;20047;-80
2022/03/23 10:50:52;;;;;;;22.33;16.63;;;15.10;78.70;;;;;;5069330;28;20158;-82
2022/03/23 10:53:34;;;;;;;21.38;15.82;;;15.10;77.40;;;;;;5074835;28;20418;-81
2022/03/23 10:56:01;;;;;;;20.88;15.13;;;15.20;76.90;;;;;;5069209;28;20123;-81
2022/03/23 10:58:27;;;;;;;19.77;15.85;;;15.20;76.30;;;;;;5072307;28;20519;-80
2022/03/23 11:01:01;;;;;;;21.33;16.25;;;15.30;76.10;;;;;;5070270;28;20049;-80
2022/03/23 11:03:42;;;;;;;25.23;16.13;;;15.40;75.00;;;;;;5069853;28;20043;-82
2022/03/23 11:06:13;;;;;;;22.30;15.30;;;15.60;73.90;;;;;;5069956;28;20057;-81
2022/03/23 11:08:41;;;;;;;23.80;13.93;;;15.60;74.90;;;;;;5070780;28;20068;-79
2022/03/23 11:16:45;;;;;;;22.75;13.77;;;15.80;73.20;;;;;;5062788;28;20072;-81
2022/03/23 11:19:11;;;;;;;18.52;13.82;;;16.10;74.60;;;;;;5071497;28;20503;-81
2022/03/23 11:22:03;;;;;;;20.48;14.38;;;15.90;73.90;;;;;;5070207;28;20052;-81
2022/03/23 11:24:37;;;;;;;24.02;14.27;;;16.00;73.00;;;;;;5063594;28;20128;-81
2022/03/23 11:27:06;;;;;;;;;;;16.10;73.70;;;;;;5071902;28;20028;-80
2022/03/23 11:29:33;;;;;;;22.08;16.85;;;16.20;73.50;;;;;;5066801;28;19920;-80
2022/03/23 11:32:07;;;;;;;17.95;13.57;;;16.40;74.20;;;;;;5065699;28;20048;-80
2022/03/23 11:34:34;;;;;;;18.00;14.65;;;16.50;74.20;;;;;;5072666;28;20033;-83
2022/03/23 11:37:01;;;;;;;25.80;12.80;;;16.60;73.50;;;;;;5066448;28;20121;-80
2022/03/23 11:39:27;;;;;;;23.13;14.38;;;16.70;73.60;;;;;;5069382;28;20062;-80
2022/03/23 11:41:53;;;;;;;20.73;12.63;;;16.80;72.40;;;;;;5069227;28;20044;-86
2022/03/23 11:44:21;;;;;;;22.27;10.43;;;16.90;71.90;;;;;;5068169;28;20041;-81
2022/03/23 11:46:47;;;;;;;17.30;9.63;;;16.90;70.70;;;;;;5067041;28;20056;-80
2022/03/23 11:49:25;;;;;;;20.85;9.52;;;16.90;70.20;;;;;;5067693;28;20447;-81
2022/03/23 11:52:05;;;;;;;17.60;10.52;;;17.00;69.20;;;;;;5060037;28;20043;-80
2022/03/23 11:57:54;;;;;;;24.52;11.27;;;17.20;67.20;;;;;;5069337;28;20080;-81
2022/03/23 12:00:27;;;;;;;17.85;9.85;;;17.30;68.40;;;;;;5066625;28;20048;-79
2022/03/23 12:02:53;;;;;;;16.42;9.45;;;17.30;68.70;;;;;;5060136;28;20427;-79
2022/03/23 12:05:35;;;;;;;25.92;8.00;;;17.50;69.20;;;;;;5065998;28;20043;-80
2022/03/23 12:08:01;;;;;;;24.70;8.30;;;17.50;65.30;;;;;;5060059;28;20085;-80
2022/03/23 12:10:30;;;;;;;32.97;10.15;;;17.70;66.50;;;;;;5068632;28;20032;-80
2022/03/23 12:13:17;;;;;;;22.13;10.00;;;17.80;67.10;;;;;;5068171;28;20051;-80
2022/03/23 12:15:58;;;;;;;24.67;9.82;;;17.90;66.20;;;;;;5050779;28;20177;-79
2022/03/23 12:18:41;;;;;;;23.27;9.82;;;18.10;66.20;;;;;;5067361;28;20044;-80
2022/03/23 12:21:11;;;;;;;20.52;9.15;;;18.20;66.30;;;;;;5058807;28;20036;-81
2022/03/23 12:23:51;;;;;;;20.90;9.55;;;18.30;66.50;;;;;;5066980;28;20480;-87
2022/03/23 12:26:33;;;;;;;20.13;9.30;;;18.50;66.50;;;;;;5063920;28;20045;-84
2022/03/23 12:29:03;;;;;;;26.70;10.65;;;18.80;66.50;;;;;;5066948;28;20055;-85
2022/03/23 12:31:39;;;;;;;26.02;9.52;;;18.80;63.50;;;;;;5047651;28;20048;-81
2022/03/23 12:34:18;;;;;;;25.35;9.75;;;18.90;63.20;;;;;;5065878;28;20063;-82
2022/03/23 12:36:56;;;;;;;20.30;8.98;;;18.90;64.30;;;;;;5059831;28;20476;-80
2022/03/23 12:39:34;;;;;;;29.67;10.68;;;18.90;64.10;;;;;;5065577;28;20040;-81
2022/03/23 12:42:11;;;;;;;20.70;8.70;;;19.00;60.90;;;;;;5059761;28;20040;-84
2022/03/23 12:44:42;;;;;;;22.58;8.70;;;19.00;62.10;;;;;;5057004;28;20051;-79
2022/03/23 12:47:11;;;;;;;22.45;8.40;;;19.00;63.00;;;;;;5058659;28;20364;-81
2022/03/23 12:58:04;;;;;;;19.15;8.35;;;19.50;63.40;;;;;;5053793;28;20076;-82
2022/03/23 13:00:37;;;;;;;27.88;8.50;;;19.60;63.40;;;;;;5065940;28;20075;-81
2022/03/23 13:03:06;;;;;;;16.85;7.55;;;19.60;62.80;;;;;;5055073;28;20517;-81
2022/03/23 13:05:32;;;;;;;24.88;10.50;;;19.70;61.40;;;;;;5054054;28;20041;-82
2022/03/23 13:07:58;;;;;;;23.58;8.65;;;19.70;59.60;;;;;;5057381;28;20033;-82
2022/03/23 13:10:26;;;;;;;20.75;9.00;;;19.60;60.60;;;;;;5059993;28;20040;-83